Terminal Aerodrome Forecast
Issued by NWS Norman, OK

Home | Current Version | Previous Version | Text Only | Print | Product List | Glossary On
Versions: 1 2 3 4 5 6 7 8 9 10 11 12 13 14 15 16 17 18 19 20 21 22 23 24 25 26 27 28 29 30 31
000
FTUS44 KOUN 031130
TAFOKC
TAF
KOKC 031130Z 0312/0412 19017G27KT 4SM BR OVC003
     FM031900 21013KT P6SM SCT003 OVC015
     FM032200 26008KT P6SM OVC030
     FM040200 02012KT 4SM BR OVC010 PROB30 0402/0406 2SM -RA BR
     FM040700 02015G23KT 3SM BR OVC005
      TEMPO 0407/0411 1SM -FZRAPLSN BR OVC003=

USA.gov is the U.S. government's official web portal to all federal, state and local government web resources and services.